sensor_id;sensor_type;location;lat;lon;timestamp;P1;durP1;ratioP1;P2;durP2;ratioP2
14698;SDS011;7439;50.804;4.602;2023-02-10T00:02:17;49.27;;;33.37;;
14698;SDS011;7439;50.804;4.602;2023-02-10T00:04:44;48.20;;;32.03;;
14698;SDS011;7439;50.804;4.602;2023-02-10T00:07:11;41.63;;;28.93;;
14698;SDS011;7439;50.804;4.602;2023-02-10T00:09:38;48.67;;;34.07;;
14698;SDS011;7439;50.804;4.602;2023-02-10T00:12:06;47.93;;;33.43;;
14698;SDS011;7439;50.804;4.602;2023-02-10T00:14:36;54.43;;;35.20;;
14698;SDS011;7439;50.804;4.602;2023-02-10T00:17:03;49.60;;;34.17;;
14698;SDS011;7439;50.804;4.602;2023-02-10T00:19:31;57.13;;;36.97;;
14698;SDS011;7439;50.804;4.602;2023-02-10T00:21:59;56.37;;;34.77;;
14698;SDS011;7439;50.804;4.602;2023-02-10T00:24:27;56.60;;;38.00;;
14698;SDS011;7439;50.804;4.602;2023-02-10T00:26:55;57.37;;;35.67;;
14698;SDS011;7439;50.804;4.602;2023-02-10T00:29:22;53.53;;;36.20;;
14698;SDS011;7439;50.804;4.602;2023-02-10T00:31:51;50.40;;;34.80;;
14698;SDS011;7439;50.804;4.602;2023-02-10T00:34:18;55.13;;;35.10;;
14698;SDS011;7439;50.804;4.602;2023-02-10T00:36:48;53.17;;;34.23;;
14698;SDS011;7439;50.804;4.602;2023-02-10T00:39:16;54.87;;;36.00;;
14698;SDS011;7439;50.804;4.602;2023-02-10T00:41:44;53.93;;;33.50;;
14698;SDS011;7439;50.804;4.602;2023-02-10T00:44:11;53.40;;;34.27;;
14698;SDS011;7439;50.804;4.602;2023-02-10T00:46:38;52.57;;;34.20;;
14698;SDS011;7439;50.804;4.602;2023-02-10T00:49:08;65.07;;;38.87;;
14698;SDS011;7439;50.804;4.602;2023-02-10T00:51:36;55.70;;;36.97;;
14698;SDS011;7439;50.804;4.602;2023-02-10T00:54:03;59.70;;;37.17;;
14698;SDS011;7439;50.804;4.602;2023-02-10T00:56:30;56.63;;;36.73;;
14698;SDS011;7439;50.804;4.602;2023-02-10T00:58:58;53.73;;;36.37;;
14698;SDS011;7439;50.804;4.602;2023-02-10T01:01:25;55.23;;;34.23;;
14698;SDS011;7439;50.804;4.602;2023-02-10T01:03:52;56.13;;;34.13;;
14698;SDS011;7439;50.804;4.602;2023-02-10T01:06:21;50.47;;;32.27;;
14698;SDS011;7439;50.804;4.602;2023-02-10T01:08:48;55.67;;;36.10;;
14698;SDS011;7439;50.804;4.602;2023-02-10T01:11:16;50.47;;;33.37;;
14698;SDS011;7439;50.804;4.602;2023-02-10T01:13:43;56.40;;;34.47;;
14698;SDS011;7439;50.804;4.602;2023-02-10T01:16:11;57.23;;;34.20;;
14698;SDS011;7439;50.804;4.602;2023-02-10T01:18:40;54.20;;;33.07;;
14698;SDS011;7439;50.804;4.602;2023-02-10T01:21:08;50.60;;;33.57;;
14698;SDS011;7439;50.804;4.602;2023-02-10T01:23:37;49.03;;;33.43;;
14698;SDS011;7439;50.804;4.602;2023-02-10T01:26:04;51.33;;;32.87;;
14698;SDS011;7439;50.804;4.602;2023-02-10T01:28:32;48.87;;;31.97;;
14698;SDS011;7439;50.804;4.602;2023-02-10T01:31:03;50.13;;;32.47;;
14698;SDS011;7439;50.804;4.602;2023-02-10T01:33:31;49.50;;;34.07;;
14698;SDS011;7439;50.804;4.602;2023-02-10T01:35:58;53.67;;;34.37;;
14698;SDS011;7439;50.804;4.602;2023-02-10T01:38:29;52.87;;;33.53;;
14698;SDS011;7439;50.804;4.602;2023-02-10T01:40:57;55.70;;;36.03;;
14698;SDS011;7439;50.804;4.602;2023-02-10T01:43:25;61.50;;;36.43;;
14698;SDS011;7439;50.804;4.602;2023-02-10T01:45:52;60.57;;;37.10;;
14698;SDS011;7439;50.804;4.602;2023-02-10T01:48:20;53.17;;;35.73;;
14698;SDS011;7439;50.804;4.602;2023-02-10T01:50:49;54.13;;;34.67;;
14698;SDS011;7439;50.804;4.602;2023-02-10T01:53:17;57.23;;;33.47;;
14698;SDS011;7439;50.804;4.602;2023-02-10T01:55:45;146.77;;;59.00;;
14698;SDS011;7439;50.804;4.602;2023-02-10T01:58:15;115.70;;;52.00;;
14698;SDS011;7439;50.804;4.602;2023-02-10T02:00:44;104.90;;;51.40;;
14698;SDS011;7439;50.804;4.602;2023-02-10T02:03:12;68.83;;;39.03;;
14698;SDS011;7439;50.804;4.602;2023-02-10T02:05:40;57.57;;;38.30;;
14698;SDS011;7439;50.804;4.602;2023-02-10T02:08:08;62.07;;;39.43;;
14698;SDS011;7439;50.804;4.602;2023-02-10T02:10:38;60.80;;;37.70;;
14698;SDS011;7439;50.804;4.602;2023-02-10T02:13:09;61.17;;;38.83;;
14698;SDS011;7439;50.804;4.602;2023-02-10T02:15:40;94.80;;;50.37;;
14698;SDS011;7439;50.804;4.602;2023-02-10T02:18:12;97.93;;;49.30;;
14698;SDS011;7439;50.804;4.602;2023-02-10T02:20:54;89.50;;;49.17;;
14698;SDS011;7439;50.804;4.602;2023-02-10T02:23:34;63.87;;;38.73;;
14698;SDS011;7439;50.804;4.602;2023-02-10T02:26:17;59.50;;;38.50;;
14698;SDS011;7439;50.804;4.602;2023-02-10T02:28:48;52.87;;;34.73;;
14698;SDS011;7439;50.804;4.602;2023-02-10T02:31:32;54.80;;;35.53;;
14698;SDS011;7439;50.804;4.602;2023-02-10T02:34:02;54.53;;;35.87;;
14698;SDS011;7439;50.804;4.602;2023-02-10T02:36:33;57.30;;;37.30;;
14698;SDS011;7439;50.804;4.602;2023-02-10T02:39:02;58.27;;;37.80;;
14698;SDS011;7439;50.804;4.602;2023-02-10T02:41:30;60.40;;;37.40;;
14698;SDS011;7439;50.804;4.602;2023-02-10T02:43:58;60.97;;;37.63;;
14698;SDS011;7439;50.804;4.602;2023-02-10T02:46:30;53.43;;;34.13;;
14698;SDS011;7439;50.804;4.602;2023-02-10T02:49:05;57.33;;;36.10;;
14698;SDS011;7439;50.804;4.602;2023-02-10T02:51:36;57.90;;;35.60;;
14698;SDS011;7439;50.804;4.602;2023-02-10T02:54:08;57.50;;;36.80;;
14698;SDS011;7439;50.804;4.602;2023-02-10T02:56:38;58.13;;;36.77;;
14698;SDS011;7439;50.804;4.602;2023-02-10T02:59:10;55.13;;;35.70;;
14698;SDS011;7439;50.804;4.602;2023-02-10T03:01:39;59.60;;;37.40;;
14698;SDS011;7439;50.804;4.602;2023-02-10T03:04:11;62.70;;;35.60;;
14698;SDS011;7439;50.804;4.602;2023-02-10T03:06:39;56.10;;;35.07;;
14698;SDS011;7439;50.804;4.602;2023-02-10T03:09:06;58.87;;;36.73;;
14698;SDS011;7439;50.804;4.602;2023-02-10T03:11:34;52.70;;;33.63;;
14698;SDS011;7439;50.804;4.602;2023-02-10T03:14:01;55.97;;;37.63;;
14698;SDS011;7439;50.804;4.602;2023-02-10T03:16:28;59.23;;;36.10;;
14698;SDS011;7439;50.804;4.602;2023-02-10T03:18:56;59.77;;;35.33;;
14698;SDS011;7439;50.804;4.602;2023-02-10T03:21:25;52.83;;;35.30;;
14698;SDS011;7439;50.804;4.602;2023-02-10T03:23:52;57.93;;;35.13;;
14698;SDS011;7439;50.804;4.602;2023-02-10T03:26:19;57.67;;;35.00;;
14698;SDS011;7439;50.804;4.602;2023-02-10T03:28:47;55.70;;;36.13;;
14698;SDS011;7439;50.804;4.602;2023-02-10T03:31:14;55.80;;;35.07;;
14698;SDS011;7439;50.804;4.602;2023-02-10T03:33:41;58.03;;;36.23;;
14698;SDS011;7439;50.804;4.602;2023-02-10T03:36:09;66.13;;;35.70;;
14698;SDS011;7439;50.804;4.602;2023-02-10T03:38:37;52.10;;;34.17;;
14698;SDS011;7439;50.804;4.602;2023-02-10T03:41:05;55.63;;;34.10;;
14698;SDS011;7439;50.804;4.602;2023-02-10T03:43:32;55.03;;;34.43;;
14698;SDS011;7439;50.804;4.602;2023-02-10T03:46:00;52.07;;;33.17;;
14698;SDS011;7439;50.804;4.602;2023-02-10T03:48:27;53.93;;;33.47;;
14698;SDS011;7439;50.804;4.602;2023-02-10T03:50:56;53.27;;;34.27;;
14698;SDS011;7439;50.804;4.602;2023-02-10T03:53:24;56.20;;;34.80;;
14698;SDS011;7439;50.804;4.602;2023-02-10T03:55:53;51.20;;;33.60;;
14698;SDS011;7439;50.804;4.602;2023-02-10T03:58:20;55.50;;;34.63;;
14698;SDS011;7439;50.804;4.602;2023-02-10T04:00:48;60.00;;;36.77;;
14698;SDS011;7439;50.804;4.602;2023-02-10T04:03:15;52.50;;;35.30;;
14698;SDS011;7439;50.804;4.602;2023-02-10T04:05:42;53.67;;;34.13;;
14698;SDS011;7439;50.804;4.602;2023-02-10T04:08:10;51.23;;;34.43;;
14698;SDS011;7439;50.804;4.602;2023-02-10T04:10:37;49.13;;;32.83;;
14698;SDS011;7439;50.804;4.602;2023-02-10T04:13:06;57.47;;;35.00;;
14698;SDS011;7439;50.804;4.602;2023-02-10T04:15:33;65.47;;;37.57;;
14698;SDS011;7439;50.804;4.602;2023-02-10T04:18:01;55.40;;;36.27;;
14698;SDS011;7439;50.804;4.602;2023-02-10T04:20:28;61.93;;;35.70;;
14698;SDS011;7439;50.804;4.602;2023-02-10T04:22:56;57.10;;;36.40;;
14698;SDS011;7439;50.804;4.602;2023-02-10T04:25:24;56.30;;;35.47;;
14698;SDS011;7439;50.804;4.602;2023-02-10T04:27:51;63.27;;;33.97;;
14698;SDS011;7439;50.804;4.602;2023-02-10T04:30:20;59.67;;;33.97;;
14698;SDS011;7439;50.804;4.602;2023-02-10T04:32:48;59.20;;;36.40;;
14698;SDS011;7439;50.804;4.602;2023-02-10T04:35:15;56.30;;;35.33;;
14698;SDS011;7439;50.804;4.602;2023-02-10T04:37:42;63.50;;;37.40;;
14698;SDS011;7439;50.804;4.602;2023-02-10T04:40:10;68.27;;;37.80;;
14698;SDS011;7439;50.804;4.602;2023-02-10T04:42:37;60.90;;;36.17;;
14698;SDS011;7439;50.804;4.602;2023-02-10T04:45:05;56.87;;;36.67;;
14698;SDS011;7439;50.804;4.602;2023-02-10T04:47:34;62.47;;;36.63;;
14698;SDS011;7439;50.804;4.602;2023-02-10T04:50:01;65.60;;;36.40;;
14698;SDS011;7439;50.804;4.602;2023-02-10T04:52:29;55.13;;;33.67;;
14698;SDS011;7439;50.804;4.602;2023-02-10T04:54:57;54.37;;;33.23;;
14698;SDS011;7439;50.804;4.602;2023-02-10T04:57:24;55.50;;;34.77;;
14698;SDS011;7439;50.804;4.602;2023-02-10T04:59:52;63.83;;;37.40;;
14698;SDS011;7439;50.804;4.602;2023-02-10T05:02:19;57.63;;;34.37;;
14698;SDS011;7439;50.804;4.602;2023-02-10T05:04:48;59.17;;;36.10;;
14698;SDS011;7439;50.804;4.602;2023-02-10T05:07:15;63.10;;;35.40;;
14698;SDS011;7439;50.804;4.602;2023-02-10T05:09:43;55.47;;;34.83;;
14698;SDS011;7439;50.804;4.602;2023-02-10T05:12:10;58.33;;;35.43;;
14698;SDS011;7439;50.804;4.602;2023-02-10T05:14:37;58.40;;;35.80;;
14698;SDS011;7439;50.804;4.602;2023-02-10T05:17:05;55.17;;;34.20;;
14698;SDS011;7439;50.804;4.602;2023-02-10T05:19:32;62.17;;;35.63;;
14698;SDS011;7439;50.804;4.602;2023-02-10T05:22:01;68.33;;;37.03;;
14698;SDS011;7439;50.804;4.602;2023-02-10T05:24:29;61.47;;;34.87;;
14698;SDS011;7439;50.804;4.602;2023-02-10T05:26:57;64.40;;;38.20;;
14698;SDS011;7439;50.804;4.602;2023-02-10T05:29:24;67.53;;;37.57;;
14698;SDS011;7439;50.804;4.602;2023-02-10T05:31:52;61.03;;;35.87;;
14698;SDS011;7439;50.804;4.602;2023-02-10T05:34:19;57.30;;;36.40;;
14698;SDS011;7439;50.804;4.602;2023-02-10T05:36:46;65.37;;;37.37;;
14698;SDS011;7439;50.804;4.602;2023-02-10T05:39:16;64.63;;;37.57;;
14698;SDS011;7439;50.804;4.602;2023-02-10T05:41:50;64.60;;;38.83;;
14698;SDS011;7439;50.804;4.602;2023-02-10T05:44:17;71.30;;;40.13;;
14698;SDS011;7439;50.804;4.602;2023-02-10T05:46:44;66.80;;;37.57;;
14698;SDS011;7439;50.804;4.602;2023-02-10T05:49:12;64.40;;;37.53;;
14698;SDS011;7439;50.804;4.602;2023-02-10T05:51:39;70.47;;;38.67;;
14698;SDS011;7439;50.804;4.602;2023-02-10T05:54:06;79.00;;;40.17;;
14698;SDS011;7439;50.804;4.602;2023-02-10T05:56:36;71.53;;;39.13;;
14698;SDS011;7439;50.804;4.602;2023-02-10T05:59:03;67.13;;;37.20;;
14698;SDS011;7439;50.804;4.602;2023-02-10T06:01:31;59.47;;;36.30;;
14698;SDS011;7439;50.804;4.602;2023-02-10T06:03:58;65.97;;;37.67;;
14698;SDS011;7439;50.804;4.602;2023-02-10T06:09:12;64.10;;;36.80;;
14698;SDS011;7439;50.804;4.602;2023-02-10T06:11:40;71.97;;;38.13;;
14698;SDS011;7439;50.804;4.602;2023-02-10T06:14:08;71.93;;;39.43;;
14698;SDS011;7439;50.804;4.602;2023-02-10T06:16:36;66.70;;;37.53;;
14698;SDS011;7439;50.804;4.602;2023-02-10T06:19:03;67.30;;;37.40;;
14698;SDS011;7439;50.804;4.602;2023-02-10T06:21:31;65.37;;;37.63;;
14698;SDS011;7439;50.804;4.602;2023-02-10T06:23:58;65.90;;;38.57;;
14698;SDS011;7439;50.804;4.602;2023-02-10T06:26:25;66.47;;;37.60;;
14698;SDS011;7439;50.804;4.602;2023-02-10T06:28:54;73.27;;;39.00;;
14698;SDS011;7439;50.804;4.602;2023-02-10T06:31:22;68.57;;;36.13;;
14698;SDS011;7439;50.804;4.602;2023-02-10T06:33:50;75.97;;;39.57;;
14698;SDS011;7439;50.804;4.602;2023-02-10T06:36:17;76.30;;;40.53;;
14698;SDS011;7439;50.804;4.602;2023-02-10T06:38:45;70.97;;;37.87;;
14698;SDS011;7439;50.804;4.602;2023-02-10T06:41:13;63.90;;;36.93;;
14698;SDS011;7439;50.804;4.602;2023-02-10T06:43:40;68.47;;;38.17;;
14698;SDS011;7439;50.804;4.602;2023-02-10T06:46:09;75.67;;;40.30;;
14698;SDS011;7439;50.804;4.602;2023-02-10T06:48:38;65.87;;;36.53;;
14698;SDS011;7439;50.804;4.602;2023-02-10T06:51:05;68.40;;;36.77;;
14698;SDS011;7439;50.804;4.602;2023-02-10T06:53:33;64.20;;;37.13;;
14698;SDS011;7439;50.804;4.602;2023-02-10T06:56:01;77.73;;;39.23;;
14698;SDS011;7439;50.804;4.602;2023-02-10T06:58:28;68.33;;;35.93;;
14698;SDS011;7439;50.804;4.602;2023-02-10T07:00:56;69.57;;;37.47;;
14698;SDS011;7439;50.804;4.602;2023-02-10T07:03:25;65.77;;;36.37;;
14698;SDS011;7439;50.804;4.602;2023-02-10T07:05:52;78.10;;;40.43;;
14698;SDS011;7439;50.804;4.602;2023-02-10T07:08:20;73.07;;;38.73;;
14698;SDS011;7439;50.804;4.602;2023-02-10T07:10:47;76.93;;;40.40;;
14698;SDS011;7439;50.804;4.602;2023-02-10T07:13:14;77.03;;;42.00;;
14698;SDS011;7439;50.804;4.602;2023-02-10T07:15:42;81.10;;;42.60;;
14698;SDS011;7439;50.804;4.602;2023-02-10T07:18:09;73.70;;;41.03;;
14698;SDS011;7439;50.804;4.602;2023-02-10T07:20:38;66.17;;;37.33;;
14698;SDS011;7439;50.804;4.602;2023-02-10T07:23:05;77.17;;;40.13;;
14698;SDS011;7439;50.804;4.602;2023-02-10T07:25:33;81.07;;;40.13;;
14698;SDS011;7439;50.804;4.602;2023-02-10T07:28:00;71.73;;;37.23;;
14698;SDS011;7439;50.804;4.602;2023-02-10T07:30:28;70.57;;;37.47;;
14698;SDS011;7439;50.804;4.602;2023-02-10T07:32:55;79.60;;;40.87;;
14698;SDS011;7439;50.804;4.602;2023-02-10T07:35:25;75.60;;;41.17;;
14698;SDS011;7439;50.804;4.602;2023-02-10T07:37:54;75.27;;;40.07;;
14698;SDS011;7439;50.804;4.602;2023-02-10T07:40:21;74.30;;;40.87;;
14698;SDS011;7439;50.804;4.602;2023-02-10T07:42:48;79.87;;;43.90;;
14698;SDS011;7439;50.804;4.602;2023-02-10T07:45:16;78.10;;;44.07;;
14698;SDS011;7439;50.804;4.602;2023-02-10T07:47:43;79.53;;;43.70;;
14698;SDS011;7439;50.804;4.602;2023-02-10T07:50:11;85.83;;;42.03;;
14698;SDS011;7439;50.804;4.602;2023-02-10T07:52:38;86.77;;;48.70;;
14698;SDS011;7439;50.804;4.602;2023-02-10T07:55:08;78.90;;;46.20;;
14698;SDS011;7439;50.804;4.602;2023-02-10T07:57:35;86.57;;;49.13;;
14698;SDS011;7439;50.804;4.602;2023-02-10T08:00:04;88.97;;;48.47;;
14698;SDS011;7439;50.804;4.602;2023-02-10T08:02:32;92.67;;;53.90;;
14698;SDS011;7439;50.804;4.602;2023-02-10T08:04:59;109.77;;;54.57;;
14698;SDS011;7439;50.804;4.602;2023-02-10T08:07:27;106.97;;;57.97;;
14698;SDS011;7439;50.804;4.602;2023-02-10T08:09:54;104.97;;;59.20;;
14698;SDS011;7439;50.804;4.602;2023-02-10T08:12:22;107.87;;;60.23;;
14698;SDS011;7439;50.804;4.602;2023-02-10T08:14:50;104.77;;;58.73;;
14698;SDS011;7439;50.804;4.602;2023-02-10T08:17:17;107.17;;;57.83;;
14698;SDS011;7439;50.804;4.602;2023-02-10T08:19:45;119.20;;;63.97;;
14698;SDS011;7439;50.804;4.602;2023-02-10T08:22:12;124.63;;;62.20;;
14698;SDS011;7439;50.804;4.602;2023-02-10T08:24:39;121.23;;;64.10;;
14698;SDS011;7439;50.804;4.602;2023-02-10T08:27:07;129.90;;;67.47;;
14698;SDS011;7439;50.804;4.602;2023-02-10T08:29:36;127.10;;;63.73;;
14698;SDS011;7439;50.804;4.602;2023-02-10T08:32:03;128.37;;;68.03;;
14698;SDS011;7439;50.804;4.602;2023-02-10T08:34:31;149.77;;;75.13;;
14698;SDS011;7439;50.804;4.602;2023-02-10T08:36:59;140.67;;;70.03;;
14698;SDS011;7439;50.804;4.602;2023-02-10T08:39:27;161.30;;;72.80;;
14698;SDS011;7439;50.804;4.602;2023-02-10T08:41:54;143.53;;;70.20;;
14698;SDS011;7439;50.804;4.602;2023-02-10T08:44:21;141.97;;;69.83;;
14698;SDS011;7439;50.804;4.602;2023-02-10T08:46:50;157.03;;;76.43;;
14698;SDS011;7439;50.804;4.602;2023-02-10T08:49:18;153.47;;;75.93;;
14698;SDS011;7439;50.804;4.602;2023-02-10T08:51:45;177.77;;;77.73;;
14698;SDS011;7439;50.804;4.602;2023-02-10T08:54:12;154.90;;;73.13;;
14698;SDS011;7439;50.804;4.602;2023-02-10T08:56:40;166.27;;;79.47;;
14698;SDS011;7439;50.804;4.602;2023-02-10T08:59:07;172.00;;;80.83;;
14698;SDS011;7439;50.804;4.602;2023-02-10T09:01:35;163.67;;;79.00;;
14698;SDS011;7439;50.804;4.602;2023-02-10T09:04:04;165.10;;;79.37;;
14698;SDS011;7439;50.804;4.602;2023-02-10T09:06:32;164.27;;;80.37;;
14698;SDS011;7439;50.804;4.602;2023-02-10T09:09:04;159.03;;;75.03;;
14698;SDS011;7439;50.804;4.602;2023-02-10T09:11:31;158.10;;;73.87;;
14698;SDS011;7439;50.804;4.602;2023-02-10T09:13:58;156.87;;;78.37;;
14698;SDS011;7439;50.804;4.602;2023-02-10T09:16:26;144.17;;;76.27;;
14698;SDS011;7439;50.804;4.602;2023-02-10T09:18:53;165.50;;;80.33;;
14698;SDS011;7439;50.804;4.602;2023-02-10T09:21:22;150.23;;;75.87;;
14698;SDS011;7439;50.804;4.602;2023-02-10T09:23:50;144.30;;;73.57;;
14698;SDS011;7439;50.804;4.602;2023-02-10T09:26:18;160.23;;;74.73;;
14698;SDS011;7439;50.804;4.602;2023-02-10T09:28:45;145.57;;;74.07;;
14698;SDS011;7439;50.804;4.602;2023-02-10T09:31:13;141.63;;;75.93;;
14698;SDS011;7439;50.804;4.602;2023-02-10T09:33:41;156.20;;;77.40;;
14698;SDS011;7439;50.804;4.602;2023-02-10T09:36:10;157.53;;;78.03;;
14698;SDS011;7439;50.804;4.602;2023-02-10T09:38:41;152.10;;;76.30;;
14698;SDS011;7439;50.804;4.602;2023-02-10T09:41:14;146.73;;;73.33;;
14698;SDS011;7439;50.804;4.602;2023-02-10T09:43:48;159.90;;;77.70;;
14698;SDS011;7439;50.804;4.602;2023-02-10T09:46:21;150.37;;;76.10;;
14698;SDS011;7439;50.804;4.602;2023-02-10T09:48:55;140.93;;;72.97;;
14698;SDS011;7439;50.804;4.602;2023-02-10T09:51:28;152.47;;;76.43;;
14698;SDS011;7439;50.804;4.602;2023-02-10T09:54:01;139.63;;;72.33;;
14698;SDS011;7439;50.804;4.602;2023-02-10T09:56:29;140.27;;;71.83;;
14698;SDS011;7439;50.804;4.602;2023-02-10T09:58:56;144.30;;;73.83;;
14698;SDS011;7439;50.804;4.602;2023-02-10T10:01:24;142.30;;;67.47;;
14698;SDS011;7439;50.804;4.602;2023-02-10T10:03:54;151.00;;;75.87;;
14698;SDS011;7439;50.804;4.602;2023-02-10T10:06:23;157.90;;;75.23;;
14698;SDS011;7439;50.804;4.602;2023-02-10T10:08:53;135.77;;;71.83;;
14698;SDS011;7439;50.804;4.602;2023-02-10T10:11:24;144.37;;;71.93;;
14698;SDS011;7439;50.804;4.602;2023-02-10T10:13:52;140.30;;;70.03;;
14698;SDS011;7439;50.804;4.602;2023-02-10T10:16:22;137.23;;;66.97;;
14698;SDS011;7439;50.804;4.602;2023-02-10T10:18:55;133.67;;;67.67;;
14698;SDS011;7439;50.804;4.602;2023-02-10T10:21:25;126.43;;;68.80;;
14698;SDS011;7439;50.804;4.602;2023-02-10T10:23:59;134.97;;;72.77;;
14698;SDS011;7439;50.804;4.602;2023-02-10T10:26:36;132.53;;;69.27;;
14698;SDS011;7439;50.804;4.602;2023-02-10T10:29:10;130.97;;;69.13;;
14698;SDS011;7439;50.804;4.602;2023-02-10T10:31:43;122.30;;;65.57;;
14698;SDS011;7439;50.804;4.602;2023-02-10T10:34:12;130.27;;;67.57;;
14698;SDS011;7439;50.804;4.602;2023-02-10T10:36:41;126.13;;;68.23;;
14698;SDS011;7439;50.804;4.602;2023-02-10T10:39:11;115.97;;;66.47;;
14698;SDS011;7439;50.804;4.602;2023-02-10T10:41:41;119.13;;;65.50;;
14698;SDS011;7439;50.804;4.602;2023-02-10T10:44:10;119.63;;;65.10;;
14698;SDS011;7439;50.804;4.602;2023-02-10T10:46:40;106.37;;;61.00;;
14698;SDS011;7439;50.804;4.602;2023-02-10T10:49:07;110.67;;;62.47;;
14698;SDS011;7439;50.804;4.602;2023-02-10T10:51:35;112.70;;;61.10;;
14698;SDS011;7439;50.804;4.602;2023-02-10T10:54:04;105.53;;;58.40;;
14698;SDS011;7439;50.804;4.602;2023-02-10T10:56:34;104.93;;;56.83;;
14698;SDS011;7439;50.804;4.602;2023-02-10T10:59:06;102.27;;;57.40;;
14698;SDS011;7439;50.804;4.602;2023-02-10T11:01:37;99.47;;;56.83;;
14698;SDS011;7439;50.804;4.602;2023-02-10T11:04:06;103.30;;;58.17;;
14698;SDS011;7439;50.804;4.602;2023-02-10T11:06:34;92.90;;;56.97;;
14698;SDS011;7439;50.804;4.602;2023-02-10T11:09:03;89.23;;;55.03;;
14698;SDS011;7439;50.804;4.602;2023-02-10T11:11:31;91.63;;;55.13;;
14698;SDS011;7439;50.804;4.602;2023-02-10T11:13:59;78.67;;;49.63;;
14698;SDS011;7439;50.804;4.602;2023-02-10T11:16:28;79.13;;;49.53;;
14698;SDS011;7439;50.804;4.602;2023-02-10T11:18:57;72.83;;;47.30;;
14698;SDS011;7439;50.804;4.602;2023-02-10T11:21:32;73.17;;;47.73;;
14698;SDS011;7439;50.804;4.602;2023-02-10T11:24:00;75.93;;;47.17;;
14698;SDS011;7439;50.804;4.602;2023-02-10T11:26:27;75.43;;;45.90;;
14698;SDS011;7439;50.804;4.602;2023-02-10T11:28:55;70.93;;;43.43;;
14698;SDS011;7439;50.804;4.602;2023-02-10T11:31:25;77.93;;;46.40;;
14698;SDS011;7439;50.804;4.602;2023-02-10T11:33:58;68.13;;;44.70;;
14698;SDS011;7439;50.804;4.602;2023-02-10T11:36:33;69.90;;;44.10;;
14698;SDS011;7439;50.804;4.602;2023-02-10T11:39:02;66.67;;;42.43;;
14698;SDS011;7439;50.804;4.602;2023-02-10T11:41:30;67.90;;;41.67;;
14698;SDS011;7439;50.804;4.602;2023-02-10T11:43:57;58.33;;;37.73;;
14698;SDS011;7439;50.804;4.602;2023-02-10T11:46:25;58.40;;;37.97;;
14698;SDS011;7439;50.804;4.602;2023-02-10T11:48:54;55.40;;;35.90;;
14698;SDS011;7439;50.804;4.602;2023-02-10T11:51:26;52.17;;;36.63;;
14698;SDS011;7439;50.804;4.602;2023-02-10T11:53:53;52.80;;;36.07;;
14698;SDS011;7439;50.804;4.602;2023-02-10T11:56:22;54.23;;;37.80;;
14698;SDS011;7439;50.804;4.602;2023-02-10T11:59:14;48.53;;;35.80;;
14698;SDS011;7439;50.804;4.602;2023-02-10T12:01:51;51.07;;;36.37;;
14698;SDS011;7439;50.804;4.602;2023-02-10T12:04:33;51.30;;;36.30;;
14698;SDS011;7439;50.804;4.602;2023-02-10T12:07:06;55.23;;;36.57;;
14698;SDS011;7439;50.804;4.602;2023-02-10T12:09:36;51.47;;;35.20;;
14698;SDS011;7439;50.804;4.602;2023-02-10T12:12:06;48.67;;;35.47;;
14698;SDS011;7439;50.804;4.602;2023-02-10T12:14:40;53.43;;;38.70;;
14698;SDS011;7439;50.804;4.602;2023-02-10T12:17:18;54.73;;;36.30;;
14698;SDS011;7439;50.804;4.602;2023-02-10T12:19:52;53.50;;;37.67;;
14698;SDS011;7439;50.804;4.602;2023-02-10T12:22:27;53.03;;;37.93;;
14698;SDS011;7439;50.804;4.602;2023-02-10T12:25:04;49.43;;;36.47;;
14698;SDS011;7439;50.804;4.602;2023-02-10T12:27:42;58.13;;;40.10;;
14698;SDS011;7439;50.804;4.602;2023-02-10T12:30:15;61.90;;;42.30;;
14698;SDS011;7439;50.804;4.602;2023-02-10T12:32:47;68.03;;;42.70;;
14698;SDS011;7439;50.804;4.602;2023-02-10T12:35:29;60.30;;;43.03;;
14698;SDS011;7439;50.804;4.602;2023-02-10T12:38:06;61.63;;;40.90;;
14698;SDS011;7439;50.804;4.602;2023-02-10T12:40:41;55.47;;;39.27;;
14698;SDS011;7439;50.804;4.602;2023-02-10T12:43:13;54.97;;;40.20;;
14698;SDS011;7439;50.804;4.602;2023-02-10T12:45:47;56.43;;;38.50;;
14698;SDS011;7439;50.804;4.602;2023-02-10T12:48:21;55.80;;;39.33;;
14698;SDS011;7439;50.804;4.602;2023-02-10T12:50:57;61.70;;;41.13;;
14698;SDS011;7439;50.804;4.602;2023-02-10T12:53:32;66.27;;;41.00;;
14698;SDS011;7439;50.804;4.602;2023-02-10T12:56:02;56.27;;;38.27;;
14698;SDS011;7439;50.804;4.602;2023-02-10T12:58:33;69.03;;;40.90;;
14698;SDS011;7439;50.804;4.602;2023-02-10T13:01:05;61.13;;;40.60;;
14698;SDS011;7439;50.804;4.602;2023-02-10T13:03:37;68.17;;;42.93;;
14698;SDS011;7439;50.804;4.602;2023-02-10T13:06:16;68.20;;;43.57;;
14698;SDS011;7439;50.804;4.602;2023-02-10T13:08:47;72.70;;;42.43;;
14698;SDS011;7439;50.804;4.602;2023-02-10T13:11:17;60.17;;;39.50;;
14698;SDS011;7439;50.804;4.602;2023-02-10T13:13:47;59.13;;;39.83;;
14698;SDS011;7439;50.804;4.602;2023-02-10T13:16:15;56.63;;;37.70;;
14698;SDS011;7439;50.804;4.602;2023-02-10T13:18:43;54.27;;;38.17;;
14698;SDS011;7439;50.804;4.602;2023-02-10T13:21:15;61.80;;;39.73;;
14698;SDS011;7439;50.804;4.602;2023-02-10T13:23:44;59.73;;;39.33;;
14698;SDS011;7439;50.804;4.602;2023-02-10T13:26:23;59.33;;;38.17;;
14698;SDS011;7439;50.804;4.602;2023-02-10T13:28:56;55.60;;;40.73;;
14698;SDS011;7439;50.804;4.602;2023-02-10T13:31:28;64.03;;;41.93;;
14698;SDS011;7439;50.804;4.602;2023-02-10T13:33:59;66.07;;;41.77;;
14698;SDS011;7439;50.804;4.602;2023-02-10T13:36:28;64.50;;;43.50;;
14698;SDS011;7439;50.804;4.602;2023-02-10T13:38:58;60.07;;;41.20;;
14698;SDS011;7439;50.804;4.602;2023-02-10T13:41:29;62.80;;;40.27;;
14698;SDS011;7439;50.804;4.602;2023-02-10T13:44:22;63.27;;;42.37;;
14698;SDS011;7439;50.804;4.602;2023-02-10T13:46:52;75.57;;;46.13;;
14698;SDS011;7439;50.804;4.602;2023-02-10T13:49:21;65.10;;;42.67;;
14698;SDS011;7439;50.804;4.602;2023-02-10T13:51:49;74.00;;;46.67;;
14698;SDS011;7439;50.804;4.602;2023-02-10T13:54:24;73.10;;;46.93;;
14698;SDS011;7439;50.804;4.602;2023-02-10T13:56:54;75.80;;;43.70;;
14698;SDS011;7439;50.804;4.602;2023-02-10T13:59:23;76.90;;;48.23;;
14698;SDS011;7439;50.804;4.602;2023-02-10T14:02:01;80.00;;;48.23;;
14698;SDS011;7439;50.804;4.602;2023-02-10T14:04:38;77.33;;;45.90;;
14698;SDS011;7439;50.804;4.602;2023-02-10T14:07:13;76.80;;;46.00;;
14698;SDS011;7439;50.804;4.602;2023-02-10T14:09:41;74.03;;;46.70;;
14698;SDS011;7439;50.804;4.602;2023-02-10T14:12:26;77.63;;;47.03;;
14698;SDS011;7439;50.804;4.602;2023-02-10T14:14:54;76.47;;;45.77;;
14698;SDS011;7439;50.804;4.602;2023-02-10T14:17:22;75.87;;;47.90;;
14698;SDS011;7439;50.804;4.602;2023-02-10T14:19:55;74.50;;;45.67;;
14698;SDS011;7439;50.804;4.602;2023-02-10T14:22:23;72.53;;;44.83;;
14698;SDS011;7439;50.804;4.602;2023-02-10T14:24:52;70.70;;;45.37;;
14698;SDS011;7439;50.804;4.602;2023-02-10T14:27:25;74.77;;;45.20;;
14698;SDS011;7439;50.804;4.602;2023-02-10T14:29:55;68.30;;;43.43;;
14698;SDS011;7439;50.804;4.602;2023-02-10T14:32:23;68.80;;;41.57;;
14698;SDS011;7439;50.804;4.602;2023-02-10T14:34:54;65.10;;;42.17;;
14698;SDS011;7439;50.804;4.602;2023-02-10T14:37:22;64.87;;;39.47;;
14698;SDS011;7439;50.804;4.602;2023-02-10T14:39:50;56.87;;;34.13;;
14698;SDS011;7439;50.804;4.602;2023-02-10T14:42:18;60.57;;;36.30;;
14698;SDS011;7439;50.804;4.602;2023-02-10T14:44:48;66.30;;;38.17;;
14698;SDS011;7439;50.804;4.602;2023-02-10T14:47:16;63.90;;;39.80;;